createdAt,value
2018-12-19T00:00:59.006Z,70.92
2018-12-19T00:01:57.551Z,71.33
2018-12-19T00:02:57.137Z,71.22
2018-12-19T00:03:57.538Z,71.47
2018-12-19T00:04:49.978Z,70.95
2018-12-19T00:05:49.966Z,71.15
2018-12-19T00:06:49.963Z,70.74
2018-12-19T00:07:49.951Z,71.05
2018-12-19T00:09:03.106Z,70.61
2018-12-19T00:09:57.461Z,70.95
2018-12-19T00:10:49.909Z,70.74
2018-12-19T00:11:58.721Z,70.84
2018-12-19T00:12:58.709Z,70.19
2018-12-19T00:13:49.904Z,70.32
2018-12-19T00:14:58.418Z,70.95
2018-12-19T00:15:57.410Z,70.53
2018-12-19T00:16:57.386Z,70.81
2018-12-19T00:17:57.376Z,70.53
2018-12-19T00:18:59.595Z,70.61
2018-12-19T00:19:57.364Z,71.15
2018-12-19T00:20:58.361Z,70.64
2018-12-19T00:21:57.334Z,70.22
2018-12-19T00:22:57.322Z,70.43
2018-12-19T00:23:58.766Z,70.40
2018-12-19T00:24:57.303Z,70.64
2018-12-19T00:25:57.412Z,70.53
2018-12-19T00:26:57.279Z,70.43
2018-12-19T00:27:57.289Z,70.53
2018-12-19T00:28:49.749Z,70.43
2018-12-19T00:29:49.729Z,70.84
2018-12-19T00:30:49.698Z,70.71
2018-12-19T00:31:49.691Z,69.92
2018-12-19T00:32:49.688Z,69.92
2018-12-19T00:33:49.684Z,69.98
2018-12-19T00:34:49.651Z,70.01
2018-12-19T00:35:49.651Z,69.78
2018-12-19T00:36:49.651Z,69.81
2018-12-19T00:37:49.632Z,69.78
2018-12-19T00:38:49.626Z,69.81
2018-12-19T00:39:49.597Z,69.78
2018-12-19T00:40:49.583Z,70.12
2018-12-19T00:41:49.578Z,70.22
2018-12-19T00:42:49.574Z,70.74
2018-12-19T00:43:49.605Z,69.92
2018-12-19T00:44:49.573Z,69.71
2018-12-19T00:45:49.531Z,70.01
2018-12-19T00:46:49.521Z,69.88
2018-12-19T00:47:49.510Z,69.26
2018-12-19T00:48:49.532Z,69.37
2018-12-19T00:49:49.490Z,69.06
2018-12-19T00:50:49.486Z,69.26
2018-12-19T00:51:49.472Z,69.26
2018-12-19T00:52:49.461Z,69.16
2018-12-19T00:53:49.465Z,69.26
2018-12-19T00:54:49.435Z,69.26
2018-12-19T00:55:49.427Z,69.37
2018-12-19T00:56:49.415Z,69.16
2018-12-19T00:57:49.412Z,69.26
2018-12-19T00:58:49.417Z,69.37
2018-12-19T00:59:49.387Z,69.47
2018-12-19T01:00:49.411Z,69.26
2018-12-19T01:01:49.362Z,69.26
2018-12-19T01:02:49.355Z,69.47
2018-12-19T01:03:49.362Z,69.16
2018-12-19T01:04:49.341Z,69.37
2018-12-19T01:05:49.319Z,69.47
2018-12-19T01:06:49.312Z,69.57
2018-12-19T01:07:49.308Z,69.37
2018-12-19T01:08:49.318Z,69.37
2018-12-19T01:09:49.284Z,69.37
2018-12-19T01:10:49.282Z,69.12
2018-12-19T01:11:49.258Z,69.47
2018-12-19T01:12:49.258Z,69.47
2018-12-19T01:13:49.242Z,69.43
2018-12-19T01:14:49.245Z,69.02
2018-12-19T01:15:49.217Z,69.12
2018-12-19T01:16:49.206Z,69.33
2018-12-19T01:17:49.193Z,69.43
2018-12-19T01:18:49.182Z,68.71
2018-12-19T01:19:49.197Z,69.54
2018-12-19T01:20:49.170Z,69.12
2018-12-19T01:21:49.187Z,69.23
2018-12-19T01:22:49.147Z,69.23
2018-12-19T01:23:49.134Z,69.33
2018-12-19T01:24:49.142Z,69.54
2018-12-19T01:25:49.186Z,69.33
2018-12-19T01:26:57.745Z,69.23
2018-12-19T01:27:49.088Z,69.43
2018-12-19T01:28:49.120Z,69.33
2018-12-19T01:31:22.770Z,69.12
2018-12-19T01:33:31.941Z,69.54
2018-12-19T01:34:31.930Z,69.23
2018-12-19T01:35:32.048Z,69.23
2018-12-19T01:36:31.918Z,69.43
2018-12-19T01:37:31.950Z,69.12
2018-12-19T01:38:39.437Z,68.92
2018-12-19T01:39:34.403Z,68.71
2018-12-19T01:40:31.887Z,68.71
2018-12-19T01:43:09.920Z,68.33
2018-12-19T01:44:09.930Z,68.82
2018-12-19T01:45:09.910Z,69.67
2018-12-19T01:46:09.909Z,68.92
2018-12-19T01:47:09.880Z,69.54
2018-12-19T01:48:09.879Z,69.23
2018-12-19T01:49:09.860Z,68.82
2018-12-19T01:50:09.854Z,69.64
2018-12-19T01:51:09.876Z,69.26
2018-12-19T01:52:09.825Z,69.33
2018-12-19T01:53:09.817Z,68.61
2018-12-19T01:54:18.403Z,68.71
2018-12-19T01:55:09.796Z,69.47
2018-12-19T01:56:19.362Z,69.33
2018-12-19T01:57:09.770Z,69.26
2018-12-19T01:58:09.762Z,69.33
2018-12-19T01:59:09.752Z,68.92
2018-12-19T02:00:09.757Z,68.61
2018-12-19T02:01:09.736Z,68.64
2018-12-19T02:02:09.779Z,69.57
2018-12-19T02:03:09.717Z,69.23
2018-12-19T02:04:09.697Z,69.37
2018-12-19T02:05:09.691Z,68.82
2018-12-19T02:06:09.681Z,68.64
2018-12-19T02:07:09.699Z,69.37
2018-12-19T02:08:09.660Z,69.12
2018-12-19T02:09:09.647Z,69.06
2018-12-19T02:10:09.645Z,69.47
2018-12-19T02:11:09.632Z,69.26
2018-12-19T02:12:09.643Z,69.37
2018-12-19T02:13:09.605Z,69.16
2018-12-19T02:14:09.596Z,68.74
2018-12-19T02:15:09.608Z,69.26
2018-12-19T02:16:09.583Z,69.37
2018-12-19T02:17:09.572Z,69.06
2018-12-19T02:18:09.574Z,69.26
2018-12-19T02:19:09.571Z,69.16
2018-12-19T02:20:17.066Z,69.26
2018-12-19T02:21:09.516Z,69.37
2018-12-19T02:22:09.510Z,69.37
2018-12-19T02:23:09.518Z,69.57
2018-12-19T02:24:09.496Z,69.37
2018-12-19T02:25:09.477Z,69.26
2018-12-19T02:26:09.469Z,69.37
2018-12-19T02:27:09.455Z,69.16
2018-12-19T02:28:09.465Z,69.26
2018-12-19T02:29:09.447Z,69.26
2018-12-19T02:30:19.479Z,69.37
2018-12-19T02:31:09.424Z,69.37
2018-12-19T02:32:09.401Z,69.47
2018-12-19T02:33:09.417Z,69.47
2018-12-19T02:34:09.379Z,69.26
2018-12-19T02:35:09.372Z,69.37
2018-12-19T02:36:09.369Z,69.16
2018-12-19T02:37:09.346Z,69.98
2018-12-19T02:38:09.354Z,69.37
2018-12-19T02:39:09.326Z,69.26
2018-12-19T02:40:09.317Z,69.88
2018-12-19T02:41:09.309Z,69.57
2018-12-19T02:42:09.296Z,69.88
2018-12-19T02:43:09.307Z,69.57
2018-12-19T02:44:09.276Z,69.67
2018-12-19T02:45:09.262Z,69.78
2018-12-19T02:46:09.259Z,70.09
2018-12-19T02:47:09.250Z,69.78
2018-12-19T02:49:27.713Z,69.85
2018-12-19T02:51:36.920Z,69.43
2018-12-19T02:53:46.148Z,69.23
2018-12-19T02:54:53.767Z,69.54
2018-12-19T02:55:53.669Z,69.54
2018-12-19T02:57:57.402Z,69.54
2018-12-19T02:59:04.954Z,69.54
2018-12-19T03:00:05.938Z,69.54
2018-12-19T03:01:04.887Z,69.33
2018-12-19T03:02:04.903Z,69.33
2018-12-19T03:03:07.211Z,69.54
2018-12-19T03:03:57.322Z,69.33
2018-12-19T03:04:57.314Z,69.40
2018-12-19T03:06:05.871Z,69.33
2018-12-19T03:06:57.358Z,69.54
2018-12-19T03:07:57.301Z,69.20
2018-12-19T03:09:09.291Z,69.64
2018-12-19T03:11:24.388Z,69.30
2018-12-19T03:13:47.170Z,68.99
2018-12-19T03:15:57.420Z,69.40
2018-12-19T03:16:57.348Z,69.51
2018-12-19T03:17:57.338Z,69.30
2018-12-19T03:20:15.102Z,69.09
2018-12-19T03:22:37.705Z,69.30
2018-12-19T03:24:47.943Z,69.30
2018-12-19T03:25:47.918Z,69.40
2018-12-19T03:28:27.245Z,69.09
2018-12-19T03:30:36.492Z,69.20
2018-12-19T03:32:45.703Z,69.30
2018-12-19T03:35:07.761Z,70.03
2018-12-19T03:37:16.996Z,69.30
2018-12-19T03:39:26.248Z,69.40
2018-12-19T03:40:34.709Z,69.30
2018-12-19T03:43:52.822Z,69.20
2018-12-19T03:46:02.048Z,69.82
2018-12-19T03:47:10.581Z,69.92
2018-12-19T03:48:10.823Z,69.95
2018-12-19T03:49:09.548Z,69.61
2018-12-19T03:50:11.922Z,69.51
2018-12-19T03:51:09.530Z,69.92
2018-12-19T03:52:09.502Z,70.54
2018-12-19T03:53:09.552Z,70.33
2018-12-19T03:54:09.492Z,69.82
2018-12-19T03:55:10.588Z,70.33
2018-12-19T03:56:10.490Z,69.61
2018-12-19T03:57:09.463Z,69.20
2018-12-19T03:59:19.086Z,69.27
2018-12-19T04:01:29.323Z,69.17
2018-12-19T04:03:39.779Z,69.37
2018-12-19T04:05:48.950Z,69.48
2018-12-19T04:07:58.191Z,70.09
2018-12-19T04:10:07.415Z,71.02
2018-12-19T04:12:16.649Z,71.37
2018-12-19T04:14:26.885Z,72.36
2018-12-19T04:15:36.618Z,73.02
2018-12-19T04:16:26.808Z,72.40
2018-12-19T04:17:35.332Z,72.71
2018-12-19T04:19:42.936Z,72.81
2018-12-19T04:21:52.174Z,73.22
2018-12-19T04:24:02.394Z,73.33
2018-12-19T04:25:10.934Z,74.15
2018-12-19T04:26:11.156Z,74.29
2018-12-19T04:27:09.889Z,74.67
2018-12-19T04:28:09.873Z,74.05
2018-12-19T04:29:09.933Z,74.36
2018-12-19T04:30:09.858Z,74.46
2018-12-19T04:31:09.853Z,74.36
2018-12-19T04:32:11.868Z,74.57
2018-12-19T04:33:02.278Z,74.77
2018-12-19T04:34:09.811Z,74.98
2018-12-19T04:35:09.802Z,75.09
2018-12-19T04:36:09.813Z,75.70
2018-12-19T04:37:09.990Z,75.81
2018-12-19T04:38:09.764Z,75.19
2018-12-19T04:39:03.044Z,76.01
2018-12-19T04:40:09.741Z,75.91
2018-12-19T04:41:10.745Z,76.32
2018-12-19T04:42:12.167Z,75.81
2018-12-19T04:43:09.740Z,76.22
2018-12-19T04:44:09.715Z,76.32
2018-12-19T04:45:09.698Z,76.01
2018-12-19T04:46:02.150Z,76.32
2018-12-19T04:47:09.672Z,76.73
2018-12-19T04:48:12.354Z,77.08
2018-12-19T04:49:09.659Z,77.60
2018-12-19T04:50:09.643Z,77.50
2018-12-19T04:51:02.088Z,77.77
2018-12-19T04:52:09.622Z,77.77
2018-12-19T04:53:10.998Z,77.67
2018-12-19T04:54:09.600Z,77.67
2018-12-19T04:55:09.608Z,77.56
2018-12-19T04:57:18.810Z,77.15
2018-12-19T04:59:28.037Z,77.22
2018-12-19T05:00:36.556Z,77.36
2018-12-19T05:01:35.617Z,77.36
2018-12-19T05:02:35.603Z,77.46
2018-12-19T05:04:44.231Z,77.67
2018-12-19T05:06:54.523Z,77.63
2018-12-19T05:09:23.768Z,77.67
2018-12-19T05:11:52.440Z,77.94
2018-12-19T05:13:54.235Z,78.59
2018-12-19T05:14:54.321Z,78.28
2018-12-19T05:15:54.212Z,78.18
2018-12-19T05:16:54.211Z,77.87
2018-12-19T05:18:45.284Z,77.73
2018-12-19T05:19:55.008Z,78.05
2018-12-19T05:20:45.251Z,77.73
2018-12-19T05:21:45.237Z,77.32
2018-12-19T05:22:45.231Z,77.42
2018-12-19T05:23:45.220Z,77.42
2018-12-19T05:24:45.238Z,77.53
2018-12-19T05:25:45.214Z,77.63
2018-12-19T05:26:45.192Z,77.84
2018-12-19T05:27:45.180Z,78.05
2018-12-19T05:28:45.174Z,77.53
2018-12-19T05:29:45.163Z,77.42
2018-12-19T05:30:45.161Z,77.53
2018-12-19T05:31:45.132Z,77.42
2018-12-19T05:32:45.205Z,77.73
2018-12-19T05:33:45.108Z,77.53
2018-12-19T05:34:45.104Z,77.53
2018-12-19T05:35:45.162Z,77.63
2018-12-19T05:36:45.121Z,77.32
2018-12-19T05:37:45.068Z,77.42
2018-12-19T05:38:45.059Z,77.42
2018-12-19T05:39:45.049Z,77.32
2018-12-19T05:40:45.057Z,77.32
2018-12-19T05:41:45.028Z,77.32
2018-12-19T05:42:45.043Z,77.32
2018-12-19T05:43:45.013Z,77.63
2018-12-19T05:44:45.016Z,78.05
2018-12-19T05:45:44.999Z,78.05
2018-12-19T05:46:44.974Z,77.42
2018-12-19T05:47:44.966Z,77.42
2018-12-19T05:48:44.952Z,77.32
2018-12-19T05:49:44.940Z,77.53
2018-12-19T05:50:44.947Z,77.42
2018-12-19T05:51:44.974Z,77.28
2018-12-19T05:52:44.955Z,77.59
2018-12-19T05:53:44.896Z,78.14
2018-12-19T05:54:44.886Z,77.59
2018-12-19T05:55:44.917Z,77.63
2018-12-19T05:56:44.885Z,77.63
2018-12-19T05:57:44.852Z,77.49
2018-12-19T05:58:44.852Z,78.25
2018-12-19T05:59:44.862Z,77.84
2018-12-19T06:00:44.824Z,78.14
2018-12-19T06:01:44.844Z,77.80
2018-12-19T06:02:44.815Z,77.70
2018-12-19T06:03:44.820Z,78.01
2018-12-19T06:04:44.781Z,78.25
2018-12-19T06:05:44.772Z,77.91
2018-12-19T06:06:44.806Z,78.11
2018-12-19T06:07:44.787Z,78.11
2018-12-19T06:08:44.742Z,77.80
2018-12-19T06:09:44.732Z,77.91
2018-12-19T06:10:44.723Z,77.49
2018-12-19T06:11:44.709Z,78.11
2018-12-19T06:12:44.714Z,77.59
2018-12-19T06:13:44.703Z,78.11
2018-12-19T06:14:44.679Z,77.87
2018-12-19T06:15:44.691Z,78.01
2018-12-19T06:16:44.662Z,78.11
2018-12-19T06:17:44.668Z,78.18
2018-12-19T06:18:44.632Z,77.66
2018-12-19T06:19:44.624Z,78.01
2018-12-19T06:20:44.609Z,77.76
2018-12-19T06:21:44.621Z,78.38
2018-12-19T06:22:44.616Z,77.97
2018-12-19T06:23:44.579Z,78.28
2018-12-19T06:24:44.595Z,78.28
2018-12-19T06:25:44.583Z,78.49
2018-12-19T06:26:44.563Z,78.18
2018-12-19T06:27:44.540Z,78.28
2018-12-19T06:28:44.578Z,78.31
2018-12-19T06:29:44.550Z,78.21
2018-12-19T06:30:44.527Z,78.08
2018-12-19T06:31:44.491Z,78.38
2018-12-19T06:32:44.512Z,78.28
2018-12-19T06:33:44.484Z,78.80
2018-12-19T06:34:44.480Z,78.49
2018-12-19T06:35:44.448Z,79.21
2018-12-19T06:36:44.437Z,79.11
2018-12-19T06:37:44.428Z,78.80
2018-12-19T06:38:44.422Z,78.90
2018-12-19T06:39:44.445Z,78.80
2018-12-19T06:40:44.435Z,79.00
2018-12-19T06:41:44.451Z,78.90
2018-12-19T06:42:44.373Z,79.00
2018-12-19T06:43:44.364Z,78.49
2018-12-19T06:44:44.416Z,79.21
2018-12-19T06:45:44.342Z,79.48
2018-12-19T06:46:44.332Z,79.11
2018-12-19T06:47:44.322Z,78.86
2018-12-19T06:48:44.328Z,78.97
2018-12-19T06:49:44.324Z,78.90
2018-12-19T06:50:51.833Z,79.27
2018-12-19T06:51:44.280Z,78.80
2018-12-19T06:52:44.269Z,79.00
2018-12-19T06:53:44.260Z,78.69
2018-12-19T06:54:44.305Z,78.69
2018-12-19T06:55:44.277Z,79.11
2018-12-19T06:56:44.226Z,78.69
2018-12-19T06:57:44.214Z,79.00
2018-12-19T06:58:44.203Z,78.90
2018-12-19T06:59:44.236Z,79.31
2018-12-19T07:00:44.184Z,79.52
2018-12-19T07:01:44.178Z,79.72
2018-12-19T07:02:44.164Z,79.52
2018-12-19T07:03:44.151Z,79.72
2018-12-19T07:04:44.141Z,79.52
2018-12-19T07:05:44.148Z,79.41
2018-12-19T07:06:44.117Z,79.69
2018-12-19T07:07:44.111Z,79.93
2018-12-19T07:08:44.098Z,79.58
2018-12-19T07:09:44.099Z,79.52
2018-12-19T07:10:44.094Z,79.58
2018-12-19T07:11:44.079Z,79.38
2018-12-19T07:12:44.057Z,79.17
2018-12-19T07:13:44.042Z,79.72
2018-12-19T07:14:44.061Z,79.58
2018-12-19T07:15:44.040Z,79.38
2018-12-19T07:16:44.012Z,79.38
2018-12-19T07:17:44.009Z,79.58
2018-12-19T07:18:43.987Z,79.72
2018-12-19T07:19:43.978Z,79.48
2018-12-19T07:20:44.016Z,79.69
2018-12-19T07:21:43.954Z,79.31
2018-12-19T07:22:43.943Z,79.72
2018-12-19T07:23:43.943Z,79.17
2018-12-19T07:24:43.923Z,79.48
2018-12-19T07:25:44.012Z,79.48
2018-12-19T07:26:43.906Z,79.07
2018-12-19T07:27:43.904Z,79.48
2018-12-19T07:28:43.880Z,79.58
2018-12-19T07:29:43.891Z,79.58
2018-12-19T07:30:43.885Z,79.48
2018-12-19T07:31:43.857Z,79.69
2018-12-19T07:32:43.887Z,79.27
2018-12-19T07:33:43.860Z,79.58
2018-12-19T07:34:44.315Z,79.48
2018-12-19T07:35:43.853Z,79.48
2018-12-19T07:36:43.796Z,79.58
2018-12-19T07:37:43.780Z,79.79
2018-12-19T07:38:43.781Z,79.90
2018-12-19T07:39:43.810Z,79.69
2018-12-19T07:40:45.806Z,79.58
2018-12-19T07:41:43.827Z,80.10
2018-12-19T07:42:43.729Z,79.79
2018-12-19T07:43:43.718Z,79.69
2018-12-19T07:44:43.703Z,79.90
2018-12-19T07:45:43.720Z,79.79
2018-12-19T07:46:43.682Z,79.58
2018-12-19T07:47:43.681Z,79.38
2018-12-19T07:48:43.668Z,79.79
2018-12-19T07:49:43.656Z,79.44
2018-12-19T07:50:43.694Z,79.58
2018-12-19T07:51:43.647Z,79.86
2018-12-19T07:52:43.628Z,79.65
2018-12-19T07:53:43.618Z,79.34
2018-12-19T07:54:43.602Z,79.75
2018-12-19T07:55:43.588Z,79.34
2018-12-19T07:56:43.598Z,79.65
2018-12-19T07:57:43.565Z,79.65
2018-12-19T07:58:43.572Z,79.58
2018-12-19T07:59:43.554Z,79.75
2018-12-19T08:00:43.540Z,79.55
2018-12-19T08:01:43.566Z,79.86
2018-12-19T08:02:43.521Z,79.55
2018-12-19T08:03:43.505Z,79.14
2018-12-19T08:04:43.495Z,79.65
2018-12-19T08:05:43.488Z,79.65
2018-12-19T08:06:43.469Z,80.06
2018-12-19T08:07:43.484Z,81.40
2018-12-19T08:08:43.452Z,79.72
2018-12-19T08:09:43.486Z,79.20
2018-12-19T08:10:43.439Z,79.51
2018-12-19T08:11:43.500Z,79.61
2018-12-19T08:12:43.431Z,79.20
2018-12-19T08:13:43.403Z,79.51
2018-12-19T08:14:43.413Z,79.41
2018-12-19T08:15:43.394Z,79.41
2018-12-19T08:16:43.400Z,79.72
2018-12-19T08:17:43.540Z,79.30
2018-12-19T08:18:43.339Z,79.41
2018-12-19T08:19:43.331Z,79.41
2018-12-19T08:20:43.318Z,79.30
2018-12-19T08:21:43.309Z,79.20
2018-12-19T08:22:43.382Z,79.30
2018-12-19T08:23:43.302Z,79.27
2018-12-19T08:24:43.279Z,79.00
2018-12-19T08:25:43.269Z,79.41
2018-12-19T08:26:43.275Z,79.72
2018-12-19T08:27:43.268Z,79.72
2018-12-19T08:28:43.258Z,79.82
2018-12-19T08:29:43.227Z,79.61
2018-12-19T08:30:43.212Z,79.61
2018-12-19T08:31:43.203Z,79.58
2018-12-19T08:32:43.239Z,79.58
2018-12-19T08:33:43.185Z,79.47
2018-12-19T08:34:43.179Z,79.68
2018-12-19T08:35:43.161Z,79.37
2018-12-19T08:36:43.225Z,79.58
2018-12-19T08:37:43.143Z,79.68
2018-12-19T08:38:43.147Z,79.68
2018-12-19T08:39:43.119Z,79.68
2018-12-19T08:40:43.113Z,79.37
2018-12-19T08:41:43.103Z,79.37
2018-12-19T08:42:43.082Z,79.27
2018-12-19T08:43:43.088Z,79.37
2018-12-19T08:44:43.067Z,79.88
2018-12-19T08:45:43.062Z,79.79
2018-12-19T08:46:43.071Z,79.88
2018-12-19T08:47:43.030Z,79.47
2018-12-19T08:48:43.036Z,79.68
2018-12-19T08:49:43.019Z,79.85
2018-12-19T08:50:42.994Z,79.16
2018-12-19T08:51:42.994Z,79.16
2018-12-19T08:52:42.975Z,79.79
2018-12-19T08:53:42.982Z,79.54
2018-12-19T08:54:42.951Z,80.05
2018-12-19T08:55:42.939Z,79.99
2018-12-19T08:56:42.928Z,79.23
2018-12-19T08:57:42.919Z,79.58
2018-12-19T08:58:42.949Z,79.54
2018-12-19T08:59:42.903Z,79.23
2018-12-19T09:00:42.912Z,79.44
2018-12-19T09:01:42.877Z,79.33
2018-12-19T09:02:42.865Z,79.33
2018-12-19T09:03:42.872Z,79.23
2018-12-19T09:04:42.916Z,79.33
2018-12-19T09:05:42.833Z,79.44
2018-12-19T09:06:42.823Z,79.13
2018-12-19T09:07:42.810Z,79.13
2018-12-19T09:08:42.819Z,79.23
2018-12-19T09:09:42.792Z,79.33
2018-12-19T09:10:42.787Z,78.82
2018-12-19T09:11:42.774Z,78.78
2018-12-19T09:12:42.757Z,78.41
2018-12-19T09:13:42.769Z,79.13
2018-12-19T09:14:42.741Z,78.89
2018-12-19T09:15:42.722Z,78.68
2018-12-19T09:16:42.718Z,78.37
2018-12-19T09:17:42.706Z,78.89
2018-12-19T09:18:42.775Z,78.68
2018-12-19T09:19:42.703Z,79.05
2018-12-19T09:20:42.671Z,78.54
2018-12-19T09:21:42.662Z,78.68
2018-12-19T09:22:42.650Z,78.64
2018-12-19T09:23:42.639Z,78.54
2018-12-19T09:24:42.652Z,78.85
2018-12-19T09:25:42.620Z,78.85
2018-12-19T09:26:42.639Z,78.68
2018-12-19T09:27:42.599Z,79.09
2018-12-19T09:28:42.586Z,79.26
2018-12-19T09:29:42.600Z,79.05
2018-12-19T09:30:42.561Z,79.16
2018-12-19T09:31:42.552Z,78.96
2018-12-19T09:32:42.539Z,79.16
2018-12-19T09:33:42.538Z,78.75
2018-12-19T09:34:42.541Z,78.85
2018-12-19T09:35:42.509Z,78.44
2018-12-19T09:36:42.504Z,79.26
2018-12-19T09:37:42.506Z,78.33
2018-12-19T09:38:42.490Z,78.54
2018-12-19T09:39:42.522Z,78.64
2018-12-19T09:40:42.480Z,79.16
2018-12-19T09:41:42.503Z,79.05
2018-12-19T09:42:42.442Z,79.16
2018-12-19T09:43:42.460Z,79.47
2018-12-19T09:44:42.430Z,79.16
2018-12-19T09:45:42.405Z,79.05
2018-12-19T09:46:42.399Z,78.96
2018-12-19T09:47:42.392Z,79.26
2018-12-19T09:48:42.381Z,79.36
2018-12-19T09:49:42.429Z,79.67
2018-12-19T09:50:42.352Z,79.57
2018-12-19T09:51:42.340Z,79.47
2018-12-19T09:52:42.339Z,79.57
2018-12-19T09:53:42.316Z,79.43
2018-12-19T09:54:42.334Z,79.53
2018-12-19T09:55:42.294Z,79.12
2018-12-19T09:56:42.287Z,79.02
2018-12-19T09:57:42.274Z,79.12
2018-12-19T09:58:42.263Z,79.53
2018-12-19T09:59:42.274Z,78.20
2018-12-19T10:00:42.240Z,79.08
2018-12-19T10:01:42.233Z,78.57
2018-12-19T10:02:42.222Z,78.36
2018-12-19T10:03:42.212Z,78.47
2018-12-19T10:04:42.241Z,78.78
2018-12-19T10:05:42.189Z,77.85
2018-12-19T10:06:42.182Z,77.85
2018-12-19T10:07:42.167Z,78.16
2018-12-19T10:08:42.160Z,79.08
2018-12-19T10:09:42.170Z,79.08
2018-12-19T10:10:42.158Z,78.67
2018-12-19T10:11:42.127Z,78.67
2018-12-19T10:12:42.144Z,78.67
2018-12-19T10:13:42.115Z,78.78
2018-12-19T10:14:42.090Z,78.78
2018-12-19T10:15:42.076Z,78.94
2018-12-19T10:16:42.090Z,78.33
2018-12-19T10:17:42.066Z,78.23
2018-12-19T10:18:42.045Z,78.02
2018-12-19T10:19:42.035Z,78.02
2018-12-19T10:20:42.025Z,77.81
2018-12-19T10:21:42.033Z,77.81
2018-12-19T10:22:42.024Z,77.81
2018-12-19T10:23:42.003Z,77.47
2018-12-19T10:24:41.989Z,77.47
2018-12-19T10:25:41.970Z,77.58
2018-12-19T10:26:41.961Z,77.47
2018-12-19T10:27:41.988Z,77.06
2018-12-19T10:28:41.938Z,77.10
2018-12-19T10:29:41.930Z,77.58
2018-12-19T10:30:41.918Z,77.37
2018-12-19T10:31:41.930Z,77.37
2018-12-19T10:32:41.893Z,77.37
2018-12-19T10:33:41.936Z,77.17
2018-12-19T10:34:41.874Z,77.17
2018-12-19T10:35:41.863Z,76.96
2018-12-19T10:36:41.850Z,77.23
2018-12-19T10:37:41.847Z,77.23
2018-12-19T10:38:41.857Z,76.51
2018-12-19T10:39:41.822Z,76.82
2018-12-19T10:40:41.821Z,76.31
2018-12-19T10:41:41.815Z,75.90
2018-12-19T10:42:41.789Z,75.69
2018-12-19T10:43:41.860Z,75.66
2018-12-19T10:44:41.765Z,75.38
2018-12-19T10:45:41.756Z,75.35
2018-12-19T10:46:41.742Z,74.32
2018-12-19T10:47:41.731Z,74.94
2018-12-19T10:48:41.727Z,74.29
2018-12-19T10:49:41.729Z,74.70
2018-12-19T10:50:41.704Z,74.19
2018-12-19T10:51:41.689Z,74.19
2018-12-19T10:52:41.700Z,74.19
2018-12-19T10:53:41.669Z,74.02
2018-12-19T10:54:41.676Z,74.08
2018-12-19T10:55:41.667Z,73.36
2018-12-19T10:56:41.636Z,73.36
2018-12-19T10:57:41.625Z,73.57
2018-12-19T10:58:41.620Z,73.57
2018-12-19T10:59:41.620Z,73.06
2018-12-19T11:00:41.601Z,72.65
2018-12-19T11:01:41.583Z,72.44
2018-12-19T11:02:41.694Z,72.41
2018-12-19T11:03:41.686Z,72.52
2018-12-19T11:04:41.573Z,72.20
2018-12-19T11:05:41.538Z,72.20
2018-12-19T11:06:41.593Z,72.41
2018-12-19T11:07:41.567Z,72.72
2018-12-19T11:08:41.503Z,72.72
2018-12-19T11:09:41.511Z,72.52
2018-12-19T11:10:41.498Z,73.03
2018-12-19T11:11:41.478Z,73.64
2018-12-19T11:12:41.465Z,73.36
2018-12-19T11:13:41.449Z,73.88
2018-12-19T11:14:41.459Z,74.29
2018-12-19T11:15:41.434Z,74.08
2018-12-19T11:16:41.422Z,74.19
2018-12-19T11:17:41.405Z,73.81
2018-12-19T11:18:41.414Z,74.29
2018-12-19T11:19:41.426Z,74.19
2018-12-19T11:20:41.411Z,74.29
2018-12-19T11:21:41.361Z,73.98
2018-12-19T11:22:41.353Z,74.12
2018-12-19T11:23:41.365Z,74.22
2018-12-19T11:24:41.328Z,74.43
2018-12-19T11:25:41.335Z,75.15
2018-12-19T11:26:41.322Z,75.11
2018-12-19T11:27:41.303Z,74.94
2018-12-19T11:28:41.284Z,74.73
2018-12-19T11:29:41.300Z,74.08
2018-12-19T11:30:41.264Z,73.88
2018-12-19T11:31:41.251Z,73.47
2018-12-19T11:32:41.260Z,73.47
2018-12-19T11:33:41.233Z,73.33
2018-12-19T11:34:41.223Z,73.74
2018-12-19T11:35:41.226Z,73.44
2018-12-19T11:36:41.198Z,73.47
2018-12-19T11:37:41.193Z,73.47
2018-12-19T11:38:41.185Z,73.78
2018-12-19T11:39:41.179Z,73.47
2018-12-19T11:40:41.171Z,73.57
2018-12-19T11:41:41.147Z,73.47
2018-12-19T11:42:41.135Z,73.78
2018-12-19T11:43:41.126Z,73.78
2018-12-19T11:44:41.131Z,73.57
2018-12-19T11:45:41.102Z,73.44
2018-12-19T11:46:41.095Z,73.47
2018-12-19T11:47:41.127Z,73.47
2018-12-19T11:48:41.072Z,73.47
2018-12-19T11:49:41.079Z,73.47
2018-12-19T11:50:41.107Z,73.47
2018-12-19T11:51:41.039Z,73.47
2018-12-19T11:52:41.032Z,73.68
2018-12-19T11:53:41.015Z,73.78
2018-12-19T11:54:41.045Z,73.47
2018-12-19T11:55:40.997Z,73.88
2018-12-19T11:56:40.982Z,73.16
2018-12-19T11:57:40.974Z,73.57
2018-12-19T11:58:40.972Z,73.68
2018-12-19T11:59:40.949Z,73.06
2018-12-19T12:00:40.961Z,73.16
2018-12-19T12:01:41.565Z,72.72
2018-12-19T12:02:40.921Z,72.61
2018-12-19T12:03:40.912Z,71.49
2018-12-19T12:04:40.920Z,69.82
2018-12-19T12:05:40.884Z,69.10
2018-12-19T12:06:40.896Z,69.00
2018-12-19T12:07:40.881Z,68.49
2018-12-19T12:08:40.891Z,67.84
2018-12-19T12:09:40.877Z,67.84
2018-12-19T12:10:40.829Z,67.13
2018-12-19T12:11:45.586Z,66.92
2018-12-19T12:12:41.812Z,66.51
2018-12-19T12:13:40.799Z,66.10
2018-12-19T12:14:40.815Z,66.10
2018-12-19T12:15:40.777Z,66.17
2018-12-19T12:16:40.766Z,66.89
2018-12-19T12:17:40.758Z,66.07
2018-12-19T12:18:40.747Z,66.28
2018-12-19T12:19:50.035Z,66.48
2018-12-19T12:20:40.723Z,66.99
2018-12-19T12:21:40.710Z,66.89
2018-12-19T12:22:41.240Z,66.48
2018-12-19T12:23:47.152Z,66.58
2018-12-19T12:24:41.685Z,66.69
2018-12-19T12:25:40.736Z,66.28
2018-12-19T12:26:40.682Z,66.28
2018-12-19T12:27:40.651Z,66.38
2018-12-19T12:28:40.672Z,66.48
2018-12-19T12:29:40.637Z,66.58
2018-12-19T12:30:40.660Z,65.87
2018-12-19T12:31:40.605Z,65.46
2018-12-19T12:32:40.619Z,65.56
2018-12-19T12:33:40.581Z,65.77
2018-12-19T12:34:40.603Z,65.66
2018-12-19T12:35:40.598Z,65.36
2018-12-19T12:36:40.552Z,65.25
2018-12-19T12:37:40.546Z,65.97
2018-12-19T12:38:40.540Z,65.66
2018-12-19T12:39:40.538Z,66.28
2018-12-19T12:40:40.563Z,65.77
2018-12-19T12:41:40.498Z,66.48
2018-12-19T12:42:40.496Z,65.87
2018-12-19T12:43:40.489Z,66.28
2018-12-19T12:44:40.468Z,65.66
2018-12-19T12:45:40.471Z,65.36
2018-12-19T12:46:40.481Z,65.84
2018-12-19T12:47:40.441Z,65.63
2018-12-19T12:48:47.975Z,64.81
2018-12-19T12:49:47.970Z,65.02
2018-12-19T12:50:47.974Z,65.33
2018-12-19T12:51:50.119Z,64.07
2018-12-19T12:52:47.935Z,64.17
2018-12-19T12:53:48.018Z,64.78
2018-12-19T12:54:47.915Z,64.51
2018-12-19T12:55:48.935Z,64.89
2018-12-19T12:58:09.099Z,64.99
2018-12-19T13:04:16.829Z,64.51
2018-12-19T13:05:16.761Z,64.99
2018-12-19T13:06:16.793Z,64.68
2018-12-19T13:08:44.074Z,65.30
2018-12-19T13:09:43.954Z,64.89
2018-12-19T13:10:43.878Z,64.48
2018-12-19T13:11:44.031Z,65.09
2018-12-19T13:12:43.857Z,64.78
2018-12-19T13:13:43.852Z,64.48
2018-12-19T13:14:43.860Z,65.02
2018-12-19T13:15:43.821Z,64.89
2018-12-19T13:16:43.832Z,64.89
2018-12-19T13:17:43.798Z,65.30
2018-12-19T13:18:51.341Z,64.92
2018-12-19T13:19:43.830Z,65.60
2018-12-19T13:20:43.785Z,65.60
2018-12-19T13:21:51.430Z,65.63
2018-12-19T13:22:43.750Z,65.53
2018-12-19T13:23:43.749Z,65.70
2018-12-19T13:24:43.764Z,65.80
2018-12-19T13:25:51.325Z,65.53
2018-12-19T13:26:43.732Z,65.73
2018-12-19T13:27:43.699Z,66.25
2018-12-19T13:28:45.100Z,66.04
2018-12-19T13:29:43.723Z,66.14
2018-12-19T13:30:43.684Z,65.87
2018-12-19T13:31:43.645Z,66.66
2018-12-19T13:32:43.637Z,66.25
2018-12-19T13:33:51.242Z,66.25
2018-12-19T13:34:43.619Z,66.04
2018-12-19T13:35:43.620Z,66.35
2018-12-19T13:36:43.597Z,66.25
2018-12-19T13:37:43.583Z,66.86
2018-12-19T13:38:44.931Z,65.53
2018-12-19T13:39:43.562Z,66.66
2018-12-19T13:40:43.596Z,66.45
2018-12-19T13:41:43.539Z,66.75
2018-12-19T13:42:43.528Z,66.75
2018-12-19T13:43:43.521Z,66.58
2018-12-19T13:44:43.508Z,66.55
2018-12-19T13:45:43.538Z,67.16
2018-12-19T13:46:43.485Z,66.66
2018-12-19T13:47:43.479Z,66.78
2018-12-19T13:48:43.462Z,66.75
2018-12-19T13:49:43.451Z,67.07
2018-12-19T13:50:43.442Z,67.40
2018-12-19T13:51:43.494Z,67.50